sensor_id;sensor_type;location;lat;lon;timestamp;temperature;humidity
39067;DHT22;24821;51.988;6.020;2023-06-05T00:00:56;13.90;96.00
39067;DHT22;24821;51.988;6.020;2023-06-05T00:03:22;13.90;96.10
39067;DHT22;24821;51.988;6.020;2023-06-05T00:05:49;13.90;96.30
39067;DHT22;24821;51.988;6.020;2023-06-05T00:08:15;13.80;96.40
39067;DHT22;24821;51.988;6.020;2023-06-05T00:10:41;13.80;96.50
39067;DHT22;24821;51.988;6.020;2023-06-05T00:13:07;13.90;96.70
39067;DHT22;24821;51.988;6.020;2023-06-05T00:15:33;13.80;96.80
39067;DHT22;24821;51.988;6.020;2023-06-05T00:18:01;13.70;96.90
39067;DHT22;24821;51.988;6.020;2023-06-05T00:20:27;13.70;97.00
39067;DHT22;24821;51.988;6.020;2023-06-05T00:22:53;13.70;97.20
39067;DHT22;24821;51.988;6.020;2023-06-05T00:25:20;13.60;97.30
39067;DHT22;24821;51.988;6.020;2023-06-05T00:27:46;13.70;97.50
39067;DHT22;24821;51.988;6.020;2023-06-05T00:30:12;13.60;97.50
39067;DHT22;24821;51.988;6.020;2023-06-05T00:32:38;13.60;97.70
39067;DHT22;24821;51.988;6.020;2023-06-05T00:35:05;13.50;98.00
39067;DHT22;24821;51.988;6.020;2023-06-05T00:37:31;13.50;97.90
39067;DHT22;24821;51.988;6.020;2023-06-05T00:39:57;13.50;98.10
39067;DHT22;24821;51.988;6.020;2023-06-05T00:42:22;13.50;98.10
39067;DHT22;24821;51.988;6.020;2023-06-05T00:44:48;13.50;98.30
39067;DHT22;24821;51.988;6.020;2023-06-05T00:47:14;13.40;98.40
39067;DHT22;24821;51.988;6.020;2023-06-05T00:49:40;13.40;98.60
39067;DHT22;24821;51.988;6.020;2023-06-05T00:52:06;13.40;98.60
39067;DHT22;24821;51.988;6.020;2023-06-05T00:54:33;13.40;98.80
39067;DHT22;24821;51.988;6.020;2023-06-05T00:56:58;13.30;98.90
39067;DHT22;24821;51.988;6.020;2023-06-05T00:59:24;13.30;99.00
39067;DHT22;24821;51.988;6.020;2023-06-05T01:01:50;13.30;99.10
39067;DHT22;24821;51.988;6.020;2023-06-05T01:04:17;13.30;99.20
39067;DHT22;24821;51.988;6.020;2023-06-05T01:06:43;13.20;99.30
39067;DHT22;24821;51.988;6.020;2023-06-05T01:09:09;13.20;99.30
39067;DHT22;24821;51.988;6.020;2023-06-05T01:11:40;13.20;99.40
39067;DHT22;24821;51.988;6.020;2023-06-05T01:14:11;13.20;99.50
39067;DHT22;24821;51.988;6.020;2023-06-05T01:16:42;13.20;99.70
39067;DHT22;24821;51.988;6.020;2023-06-05T01:19:13;13.10;99.80
39067;DHT22;24821;51.988;6.020;2023-06-05T01:21:40;13.10;99.90
39067;DHT22;24821;51.988;6.020;2023-06-05T01:24:06;13.10;99.90
39067;DHT22;24821;51.988;6.020;2023-06-05T01:33:07;13.00;99.90
39067;DHT22;24821;51.988;6.020;2023-06-05T01:35:34;12.90;99.90
39067;DHT22;24821;51.988;6.020;2023-06-05T01:38:02;12.90;99.90
39067;DHT22;24821;51.988;6.020;2023-06-05T01:40:31;12.90;99.90
39067;DHT22;24821;51.988;6.020;2023-06-05T01:42:59;12.90;99.90
39067;DHT22;24821;51.988;6.020;2023-06-05T01:45:26;12.80;99.90
39067;DHT22;24821;51.988;6.020;2023-06-05T01:47:52;12.80;99.90
39067;DHT22;24821;51.988;6.020;2023-06-05T01:50:19;12.80;99.90
39067;DHT22;24821;51.988;6.020;2023-06-05T01:52:46;12.80;99.90
39067;DHT22;24821;51.988;6.020;2023-06-05T01:55:20;12.80;99.90
39067;DHT22;24821;51.988;6.020;2023-06-05T01:57:52;12.70;99.90
39067;DHT22;24821;51.988;6.020;2023-06-05T02:00:18;12.70;99.90
39067;DHT22;24821;51.988;6.020;2023-06-05T02:02:45;12.70;99.90
39067;DHT22;24821;51.988;6.020;2023-06-05T02:05:12;12.70;99.90
39067;DHT22;24821;51.988;6.020;2023-06-05T02:07:39;12.60;99.90
39067;DHT22;24821;51.988;6.020;2023-06-05T02:10:06;12.60;99.90
39067;DHT22;24821;51.988;6.020;2023-06-05T02:12:32;12.60;99.90
39067;DHT22;24821;51.988;6.020;2023-06-05T02:15:01;12.60;99.90
39067;DHT22;24821;51.988;6.020;2023-06-05T02:17:27;12.50;99.90
39067;DHT22;24821;51.988;6.020;2023-06-05T02:19:52;12.50;99.90
39067;DHT22;24821;51.988;6.020;2023-06-05T02:22:18;12.50;99.90
39067;DHT22;24821;51.988;6.020;2023-06-05T02:24:44;12.50;99.90
39067;DHT22;24821;51.988;6.020;2023-06-05T02:27:10;12.40;99.90
39067;DHT22;24821;51.988;6.020;2023-06-05T02:29:36;12.40;99.90
39067;DHT22;24821;51.988;6.020;2023-06-05T02:32:03;12.40;99.90
39067;DHT22;24821;51.988;6.020;2023-06-05T02:34:28;12.40;99.90
39067;DHT22;24821;51.988;6.020;2023-06-05T02:36:54;12.30;99.90
39067;DHT22;24821;51.988;6.020;2023-06-05T02:39:20;12.30;99.90
39067;DHT22;24821;51.988;6.020;2023-06-05T02:41:46;12.30;99.90
39067;DHT22;24821;51.988;6.020;2023-06-05T02:44:12;12.30;99.90
39067;DHT22;24821;51.988;6.020;2023-06-05T02:46:37;12.30;99.90
39067;DHT22;24821;51.988;6.020;2023-06-05T02:49:03;12.30;99.90
39067;DHT22;24821;51.988;6.020;2023-06-05T02:51:28;12.20;99.90
39067;DHT22;24821;51.988;6.020;2023-06-05T02:53:54;12.20;99.90
39067;DHT22;24821;51.988;6.020;2023-06-05T02:56:19;12.20;99.90
39067;DHT22;24821;51.988;6.020;2023-06-05T02:58:47;12.20;99.90
39067;DHT22;24821;51.988;6.020;2023-06-05T03:01:12;12.20;99.90
39067;DHT22;24821;51.988;6.020;2023-06-05T03:03:38;12.10;99.90
39067;DHT22;24821;51.988;6.020;2023-06-05T03:06:03;12.10;99.90
39067;DHT22;24821;51.988;6.020;2023-06-05T03:08:33;12.10;99.90
39067;DHT22;24821;51.988;6.020;2023-06-05T03:11:00;12.00;99.90
39067;DHT22;24821;51.988;6.020;2023-06-05T03:13:27;12.00;99.90
39067;DHT22;24821;51.988;6.020;2023-06-05T03:15:53;12.00;99.90
39067;DHT22;24821;51.988;6.020;2023-06-05T03:18:25;12.00;99.90
39067;DHT22;24821;51.988;6.020;2023-06-05T03:20:51;11.90;99.90
39067;DHT22;24821;51.988;6.020;2023-06-05T03:23:23;11.90;99.90
39067;DHT22;24821;51.988;6.020;2023-06-05T03:25:49;11.90;99.90
39067;DHT22;24821;51.988;6.020;2023-06-05T03:28:15;11.90;99.90
39067;DHT22;24821;51.988;6.020;2023-06-05T03:30:40;11.80;99.90
39067;DHT22;24821;51.988;6.020;2023-06-05T03:33:06;11.80;99.90
39067;DHT22;24821;51.988;6.020;2023-06-05T03:35:32;11.80;99.90
39067;DHT22;24821;51.988;6.020;2023-06-05T03:37:58;11.80;99.90
39067;DHT22;24821;51.988;6.020;2023-06-05T03:40:24;11.70;99.90
39067;DHT22;24821;51.988;6.020;2023-06-05T03:42:50;11.70;99.90
39067;DHT22;24821;51.988;6.020;2023-06-05T03:45:16;11.70;99.90
39067;DHT22;24821;51.988;6.020;2023-06-05T03:47:42;11.80;99.90
39067;DHT22;24821;51.988;6.020;2023-06-05T03:50:10;11.70;99.90
39067;DHT22;24821;51.988;6.020;2023-06-05T03:52:36;11.70;99.90
39067;DHT22;24821;51.988;6.020;2023-06-05T03:55:03;11.70;99.90
39067;DHT22;24821;51.988;6.020;2023-06-05T03:57:31;11.70;99.90
39067;DHT22;24821;51.988;6.020;2023-06-05T03:59:57;11.80;99.90
39067;DHT22;24821;51.988;6.020;2023-06-05T04:02:23;11.80;99.90
39067;DHT22;24821;51.988;6.020;2023-06-05T04:04:48;11.80;99.90
39067;DHT22;24821;51.988;6.020;2023-06-05T04:07:16;11.80;99.90
39067;DHT22;24821;51.988;6.020;2023-06-05T04:09:41;11.80;99.90
39067;DHT22;24821;51.988;6.020;2023-06-05T04:12:08;11.80;99.90
39067;DHT22;24821;51.988;6.020;2023-06-05T04:14:35;11.80;99.90
39067;DHT22;24821;51.988;6.020;2023-06-05T04:17:02;11.80;99.90
39067;DHT22;24821;51.988;6.020;2023-06-05T04:19:28;11.80;99.90
39067;DHT22;24821;51.988;6.020;2023-06-05T04:21:54;11.80;99.90
39067;DHT22;24821;51.988;6.020;2023-06-05T04:24:19;11.80;99.90
39067;DHT22;24821;51.988;6.020;2023-06-05T04:26:45;11.90;99.90
39067;DHT22;24821;51.988;6.020;2023-06-05T04:29:13;11.80;99.90
39067;DHT22;24821;51.988;6.020;2023-06-05T04:31:44;11.90;99.90
39067;DHT22;24821;51.988;6.020;2023-06-05T04:34:10;11.90;99.90
39067;DHT22;24821;51.988;6.020;2023-06-05T04:36:36;11.90;99.90
39067;DHT22;24821;51.988;6.020;2023-06-05T04:39:02;11.90;99.90
39067;DHT22;24821;51.988;6.020;2023-06-05T04:41:32;11.90;99.90
39067;DHT22;24821;51.988;6.020;2023-06-05T04:43:58;11.90;99.90
39067;DHT22;24821;51.988;6.020;2023-06-05T04:46:25;12.00;99.90
39067;DHT22;24821;51.988;6.020;2023-06-05T04:48:51;12.00;99.90
39067;DHT22;24821;51.988;6.020;2023-06-05T04:51:21;12.00;99.90
39067;DHT22;24821;51.988;6.020;2023-06-05T04:53:47;12.00;99.90
39067;DHT22;24821;51.988;6.020;2023-06-05T04:56:16;12.00;99.90
39067;DHT22;24821;51.988;6.020;2023-06-05T04:58:42;12.00;99.90
39067;DHT22;24821;51.988;6.020;2023-06-05T05:01:07;12.10;99.90
39067;DHT22;24821;51.988;6.020;2023-06-05T05:03:33;12.10;99.90
39067;DHT22;24821;51.988;6.020;2023-06-05T05:05:59;12.10;99.90
39067;DHT22;24821;51.988;6.020;2023-06-05T05:08:24;12.20;99.90
39067;DHT22;24821;51.988;6.020;2023-06-05T05:10:50;12.30;99.90
39067;DHT22;24821;51.988;6.020;2023-06-05T05:13:16;12.40;99.90
39067;DHT22;24821;51.988;6.020;2023-06-05T05:15:41;12.50;99.90
39067;DHT22;24821;51.988;6.020;2023-06-05T05:18:07;12.60;99.90
39067;DHT22;24821;51.988;6.020;2023-06-05T05:20:32;12.70;99.90
39067;DHT22;24821;51.988;6.020;2023-06-05T05:22:59;12.80;99.90
39067;DHT22;24821;51.988;6.020;2023-06-05T05:25:25;12.90;99.90
39067;DHT22;24821;51.988;6.020;2023-06-05T05:27:51;12.90;99.90
39067;DHT22;24821;51.988;6.020;2023-06-05T05:30:17;13.00;99.90
39067;DHT22;24821;51.988;6.020;2023-06-05T05:32:42;13.00;99.90
39067;DHT22;24821;51.988;6.020;2023-06-05T05:35:08;13.00;99.90
39067;DHT22;24821;51.988;6.020;2023-06-05T05:37:34;13.00;99.90
39067;DHT22;24821;51.988;6.020;2023-06-05T05:39:59;13.10;99.90
39067;DHT22;24821;51.988;6.020;2023-06-05T05:42:25;13.10;99.90
39067;DHT22;24821;51.988;6.020;2023-06-05T05:44:50;13.20;99.90
39067;DHT22;24821;51.988;6.020;2023-06-05T05:47:16;13.20;99.90
39067;DHT22;24821;51.988;6.020;2023-06-05T05:49:42;13.30;99.90
39067;DHT22;24821;51.988;6.020;2023-06-05T05:52:08;13.30;99.90
39067;DHT22;24821;51.988;6.020;2023-06-05T05:54:34;13.30;99.90
39067;DHT22;24821;51.988;6.020;2023-06-05T05:56:59;13.30;99.90
39067;DHT22;24821;51.988;6.020;2023-06-05T05:59:25;13.30;99.90
39067;DHT22;24821;51.988;6.020;2023-06-05T06:01:51;13.30;99.90
39067;DHT22;24821;51.988;6.020;2023-06-05T06:04:17;13.30;99.90
39067;DHT22;24821;51.988;6.020;2023-06-05T06:06:43;13.40;99.90
39067;DHT22;24821;51.988;6.020;2023-06-05T06:09:09;13.40;99.90
39067;DHT22;24821;51.988;6.020;2023-06-05T06:11:38;13.50;99.90
39067;DHT22;24821;51.988;6.020;2023-06-05T06:14:03;13.60;99.90
39067;DHT22;24821;51.988;6.020;2023-06-05T06:16:29;14.00;99.90
39067;DHT22;24821;51.988;6.020;2023-06-05T06:18:55;14.50;99.90
39067;DHT22;24821;51.988;6.020;2023-06-05T06:21:20;15.00;99.90
39067;DHT22;24821;51.988;6.020;2023-06-05T06:23:46;15.40;99.70
39067;DHT22;24821;51.988;6.020;2023-06-05T06:26:12;15.80;99.30
39067;DHT22;24821;51.988;6.020;2023-06-05T06:28:40;16.10;99.00
39067;DHT22;24821;51.988;6.020;2023-06-05T06:31:05;16.10;98.40
39067;DHT22;24821;51.988;6.020;2023-06-05T06:33:32;15.90;98.10
39067;DHT22;24821;51.988;6.020;2023-06-05T06:35:57;15.70;98.20
39067;DHT22;24821;51.988;6.020;2023-06-05T06:38:26;15.50;98.40
39067;DHT22;24821;51.988;6.020;2023-06-05T06:40:57;15.50;98.60
39067;DHT22;24821;51.988;6.020;2023-06-05T06:43:23;15.50;98.60
39067;DHT22;24821;51.988;6.020;2023-06-05T06:45:49;15.60;98.50
39067;DHT22;24821;51.988;6.020;2023-06-05T06:48:16;15.50;98.40
39067;DHT22;24821;51.988;6.020;2023-06-05T06:50:42;15.50;98.60
39067;DHT22;24821;51.988;6.020;2023-06-05T06:53:08;15.60;98.80
39067;DHT22;24821;51.988;6.020;2023-06-05T06:55:34;15.60;99.00
39067;DHT22;24821;51.988;6.020;2023-06-05T06:57:59;15.70;98.60
39067;DHT22;24821;51.988;6.020;2023-06-05T07:00:25;15.70;98.20
39067;DHT22;24821;51.988;6.020;2023-06-05T07:02:51;15.70;98.40
39067;DHT22;24821;51.988;6.020;2023-06-05T07:05:16;15.70;98.40
39067;DHT22;24821;51.988;6.020;2023-06-05T07:07:43;15.60;98.40
39067;DHT22;24821;51.988;6.020;2023-06-05T07:10:09;15.70;98.50
39067;DHT22;24821;51.988;6.020;2023-06-05T07:12:34;15.80;98.60
39067;DHT22;24821;51.988;6.020;2023-06-05T07:15:00;15.80;98.40
39067;DHT22;24821;51.988;6.020;2023-06-05T07:17:25;15.90;98.50
39067;DHT22;24821;51.988;6.020;2023-06-05T07:19:54;16.00;98.70
39067;DHT22;24821;51.988;6.020;2023-06-05T07:22:20;16.10;98.20
39067;DHT22;24821;51.988;6.020;2023-06-05T07:24:45;16.20;98.10
39067;DHT22;24821;51.988;6.020;2023-06-05T07:27:11;16.30;98.00
39067;DHT22;24821;51.988;6.020;2023-06-05T07:29:37;16.40;97.80
39067;DHT22;24821;51.988;6.020;2023-06-05T07:32:03;16.60;98.20
39067;DHT22;24821;51.988;6.020;2023-06-05T07:34:32;16.90;97.20
39067;DHT22;24821;51.988;6.020;2023-06-05T07:36:59;17.30;97.00
39067;DHT22;24821;51.988;6.020;2023-06-05T07:39:24;17.60;96.50
39067;DHT22;24821;51.988;6.020;2023-06-05T07:41:50;18.00;96.30
39067;DHT22;24821;51.988;6.020;2023-06-05T07:44:17;18.40;95.60
39067;DHT22;24821;51.988;6.020;2023-06-05T07:46:44;18.70;94.80
39067;DHT22;24821;51.988;6.020;2023-06-05T07:49:10;18.80;94.40
39067;DHT22;24821;51.988;6.020;2023-06-05T07:51:36;19.10;93.90
39067;DHT22;24821;51.988;6.020;2023-06-05T07:54:09;19.30;93.80
39067;DHT22;24821;51.988;6.020;2023-06-05T07:56:35;19.60;93.50
39067;DHT22;24821;51.988;6.020;2023-06-05T07:59:02;19.80;93.20
39067;DHT22;24821;51.988;6.020;2023-06-05T08:01:32;20.00;92.60
39067;DHT22;24821;51.988;6.020;2023-06-05T08:04:11;20.20;92.10
39067;DHT22;24821;51.988;6.020;2023-06-05T08:06:37;20.30;91.70
39067;DHT22;24821;51.988;6.020;2023-06-05T08:09:04;20.40;92.10
39067;DHT22;24821;51.988;6.020;2023-06-05T08:11:31;20.70;92.00
39067;DHT22;24821;51.988;6.020;2023-06-05T08:13:57;20.90;91.20
39067;DHT22;24821;51.988;6.020;2023-06-05T08:16:22;21.10;90.90
39067;DHT22;24821;51.988;6.020;2023-06-05T08:18:48;21.10;90.50
39067;DHT22;24821;51.988;6.020;2023-06-05T08:21:13;21.10;90.40
39067;DHT22;24821;51.988;6.020;2023-06-05T08:23:39;21.30;90.30
39067;DHT22;24821;51.988;6.020;2023-06-05T08:26:05;21.40;90.10
39067;DHT22;24821;51.988;6.020;2023-06-05T08:28:38;21.50;89.40
39067;DHT22;24821;51.988;6.020;2023-06-05T08:31:03;21.40;90.00
39067;DHT22;24821;51.988;6.020;2023-06-05T08:33:34;21.50;89.50
39067;DHT22;24821;51.988;6.020;2023-06-05T08:36:00;21.70;89.70
39067;DHT22;24821;51.988;6.020;2023-06-05T08:38:26;21.90;88.60
39067;DHT22;24821;51.988;6.020;2023-06-05T08:40:56;22.10;87.50
39067;DHT22;24821;51.988;6.020;2023-06-05T08:43:24;22.40;87.70
39067;DHT22;24821;51.988;6.020;2023-06-05T08:45:51;22.60;88.10
39067;DHT22;24821;51.988;6.020;2023-06-05T08:48:20;22.80;86.10
39067;DHT22;24821;51.988;6.020;2023-06-05T08:50:47;22.90;86.10
39067;DHT22;24821;51.988;6.020;2023-06-05T08:53:16;23.00;86.20
39067;DHT22;24821;51.988;6.020;2023-06-05T08:55:46;23.20;84.80
39067;DHT22;24821;51.988;6.020;2023-06-05T08:58:14;23.30;83.80
39067;DHT22;24821;51.988;6.020;2023-06-05T09:00:40;23.20;83.10
39067;DHT22;24821;51.988;6.020;2023-06-05T09:03:06;23.30;83.80
39067;DHT22;24821;51.988;6.020;2023-06-05T09:05:32;23.30;83.60
39067;DHT22;24821;51.988;6.020;2023-06-05T09:07:58;23.40;82.90
39067;DHT22;24821;51.988;6.020;2023-06-05T09:10:28;23.50;83.30
39067;DHT22;24821;51.988;6.020;2023-06-05T09:12:56;23.70;83.40
39067;DHT22;24821;51.988;6.020;2023-06-05T09:15:27;24.10;83.00
39067;DHT22;24821;51.988;6.020;2023-06-05T09:18:03;24.30;80.50
39067;DHT22;24821;51.988;6.020;2023-06-05T09:20:29;24.40;80.30
39067;DHT22;24821;51.988;6.020;2023-06-05T09:22:56;24.20;79.90
39067;DHT22;24821;51.988;6.020;2023-06-05T09:25:22;24.40;80.80
39067;DHT22;24821;51.988;6.020;2023-06-05T09:28:08;24.50;79.50
39067;DHT22;24821;51.988;6.020;2023-06-05T09:30:33;24.60;79.00
39067;DHT22;24821;51.988;6.020;2023-06-05T09:33:09;24.70;79.90
39067;DHT22;24821;51.988;6.020;2023-06-05T09:35:34;24.90;78.40
39067;DHT22;24821;51.988;6.020;2023-06-05T09:38:25;24.90;78.70
39067;DHT22;24821;51.988;6.020;2023-06-05T09:40:51;25.10;78.90
39067;DHT22;24821;51.988;6.020;2023-06-05T09:43:21;25.00;78.00
39067;DHT22;24821;51.988;6.020;2023-06-05T09:45:48;25.00;77.70
39067;DHT22;24821;51.988;6.020;2023-06-05T09:48:15;25.00;77.80
39067;DHT22;24821;51.988;6.020;2023-06-05T09:50:41;25.10;77.90
39067;DHT22;24821;51.988;6.020;2023-06-05T09:53:08;25.10;78.40
39067;DHT22;24821;51.988;6.020;2023-06-05T09:55:34;25.20;78.50
39067;DHT22;24821;51.988;6.020;2023-06-05T09:58:03;25.20;77.20
39067;DHT22;24821;51.988;6.020;2023-06-05T10:00:36;25.40;77.70
39067;DHT22;24821;51.988;6.020;2023-06-05T10:03:14;25.40;77.60
39067;DHT22;24821;51.988;6.020;2023-06-05T10:05:40;25.50;76.50
39067;DHT22;24821;51.988;6.020;2023-06-05T10:08:11;25.60;76.40
39067;DHT22;24821;51.988;6.020;2023-06-05T10:10:41;25.60;76.70
39067;DHT22;24821;51.988;6.020;2023-06-05T10:13:06;25.70;76.80
39067;DHT22;24821;51.988;6.020;2023-06-05T10:15:33;25.60;76.40
39067;DHT22;24821;51.988;6.020;2023-06-05T10:17:59;25.50;76.20
39067;DHT22;24821;51.988;6.020;2023-06-05T10:20:28;25.60;76.30
39067;DHT22;24821;51.988;6.020;2023-06-05T10:22:54;25.50;75.60
39067;DHT22;24821;51.988;6.020;2023-06-05T10:25:21;25.50;76.30
39067;DHT22;24821;51.988;6.020;2023-06-05T10:28:20;25.50;76.20
39067;DHT22;24821;51.988;6.020;2023-06-05T10:31:13;25.50;75.30
39067;DHT22;24821;51.988;6.020;2023-06-05T10:34:00;25.30;76.40
39067;DHT22;24821;51.988;6.020;2023-06-05T10:39:18;25.00;76.80
39067;DHT22;24821;51.988;6.020;2023-06-05T10:41:44;24.90;77.10
39067;DHT22;24821;51.988;6.020;2023-06-05T10:44:10;24.90;77.80
39067;DHT22;24821;51.988;6.020;2023-06-05T10:46:36;24.90;77.20
39067;DHT22;24821;51.988;6.020;2023-06-05T10:49:15;25.00;77.30
39067;DHT22;24821;51.988;6.020;2023-06-05T10:51:47;24.90;77.50
39067;DHT22;24821;51.988;6.020;2023-06-05T10:56:58;24.90;75.30
39067;DHT22;24821;51.988;6.020;2023-06-05T10:59:27;24.70;75.70
39067;DHT22;24821;51.988;6.020;2023-06-05T11:15:09;24.50;76.90
39067;DHT22;24821;51.988;6.020;2023-06-05T11:17:37;24.60;77.30
39067;DHT22;24821;51.988;6.020;2023-06-05T11:20:04;24.60;76.70
39067;DHT22;24821;51.988;6.020;2023-06-05T11:28:01;24.70;76.70
39067;DHT22;24821;51.988;6.020;2023-06-05T11:30:29;24.70;76.80
39067;DHT22;24821;51.988;6.020;2023-06-05T11:33:12;24.70;77.30
39067;DHT22;24821;51.988;6.020;2023-06-05T11:35:43;24.90;77.10
39067;DHT22;24821;51.988;6.020;2023-06-05T11:38:17;25.10;77.40
39067;DHT22;24821;51.988;6.020;2023-06-05T11:40:44;25.20;76.40
39067;DHT22;24821;51.988;6.020;2023-06-05T11:43:11;25.20;76.20
39067;DHT22;24821;51.988;6.020;2023-06-05T11:45:39;25.20;74.80
39067;DHT22;24821;51.988;6.020;2023-06-05T11:48:08;25.20;75.30
39067;DHT22;24821;51.988;6.020;2023-06-05T11:50:38;25.20;75.30
39067;DHT22;24821;51.988;6.020;2023-06-05T11:53:08;25.20;75.60
39067;DHT22;24821;51.988;6.020;2023-06-05T11:55:34;25.20;73.80
39067;DHT22;24821;51.988;6.020;2023-06-05T11:58:24;25.10;74.30
39067;DHT22;24821;51.988;6.020;2023-06-05T12:00:50;25.20;74.80
39067;DHT22;24821;51.988;6.020;2023-06-05T12:03:20;25.20;75.30
39067;DHT22;24821;51.988;6.020;2023-06-05T12:05:47;25.30;74.60
39067;DHT22;24821;51.988;6.020;2023-06-05T12:08:27;25.30;74.40
39067;DHT22;24821;51.988;6.020;2023-06-05T12:10:54;25.40;74.00
39067;DHT22;24821;51.988;6.020;2023-06-05T12:13:23;25.40;76.00
39067;DHT22;24821;51.988;6.020;2023-06-05T12:16:00;25.50;74.60
39067;DHT22;24821;51.988;6.020;2023-06-05T12:18:33;25.60;73.60
39067;DHT22;24821;51.988;6.020;2023-06-05T12:21:02;25.60;73.30
39067;DHT22;24821;51.988;6.020;2023-06-05T12:23:30;25.70;72.70
39067;DHT22;24821;51.988;6.020;2023-06-05T12:26:04;25.80;73.00
39067;DHT22;24821;51.988;6.020;2023-06-05T12:28:30;25.70;72.60
39067;DHT22;24821;51.988;6.020;2023-06-05T12:30:57;25.60;71.90
39067;DHT22;24821;51.988;6.020;2023-06-05T12:33:23;25.60;72.50
39067;DHT22;24821;51.988;6.020;2023-06-05T12:36:06;25.70;72.80
39067;DHT22;24821;51.988;6.020;2023-06-05T12:38:41;25.80;72.30
39067;DHT22;24821;51.988;6.020;2023-06-05T12:41:08;25.70;70.80
39067;DHT22;24821;51.988;6.020;2023-06-05T12:43:34;25.70;70.60
39067;DHT22;24821;51.988;6.020;2023-06-05T12:46:00;25.70;71.60
39067;DHT22;24821;51.988;6.020;2023-06-05T12:48:26;25.80;72.50
39067;DHT22;24821;51.988;6.020;2023-06-05T12:50:51;25.90;71.90
39067;DHT22;24821;51.988;6.020;2023-06-05T12:53:17;25.90;70.80
39067;DHT22;24821;51.988;6.020;2023-06-05T12:55:43;25.90;70.30
39067;DHT22;24821;51.988;6.020;2023-06-05T12:58:09;25.90;70.30
39067;DHT22;24821;51.988;6.020;2023-06-05T13:00:35;25.90;71.00
39067;DHT22;24821;51.988;6.020;2023-06-05T13:03:01;25.90;70.10
39067;DHT22;24821;51.988;6.020;2023-06-05T13:05:28;25.90;71.80
39067;DHT22;24821;51.988;6.020;2023-06-05T13:07:53;25.90;72.60
39067;DHT22;24821;51.988;6.020;2023-06-05T13:10:20;25.90;72.10
39067;DHT22;24821;51.988;6.020;2023-06-05T13:12:45;26.00;71.00
39067;DHT22;24821;51.988;6.020;2023-06-05T13:15:11;25.90;68.90
39067;DHT22;24821;51.988;6.020;2023-06-05T13:17:37;25.90;68.40
39067;DHT22;24821;51.988;6.020;2023-06-05T13:20:04;25.90;69.00
39067;DHT22;24821;51.988;6.020;2023-06-05T13:22:40;25.90;69.30
39067;DHT22;24821;51.988;6.020;2023-06-05T13:25:06;25.90;70.50
39067;DHT22;24821;51.988;6.020;2023-06-05T13:27:32;25.90;71.00
39067;DHT22;24821;51.988;6.020;2023-06-05T13:29:58;26.00;71.00
39067;DHT22;24821;51.988;6.020;2023-06-05T13:32:23;25.90;70.30
39067;DHT22;24821;51.988;6.020;2023-06-05T13:34:49;25.90;71.60
39067;DHT22;24821;51.988;6.020;2023-06-05T13:37:15;26.00;71.90
39067;DHT22;24821;51.988;6.020;2023-06-05T13:39:41;26.00;69.60
39067;DHT22;24821;51.988;6.020;2023-06-05T13:42:06;26.00;70.70
39067;DHT22;24821;51.988;6.020;2023-06-05T13:44:32;26.10;70.20
39067;DHT22;24821;51.988;6.020;2023-06-05T13:46:57;26.20;69.20
39067;DHT22;24821;51.988;6.020;2023-06-05T13:49:23;26.10;69.50
39067;DHT22;24821;51.988;6.020;2023-06-05T13:51:49;26.10;68.80
39067;DHT22;24821;51.988;6.020;2023-06-05T13:54:14;26.20;68.70
39067;DHT22;24821;51.988;6.020;2023-06-05T13:56:40;26.30;68.10
39067;DHT22;24821;51.988;6.020;2023-06-05T13:59:05;26.30;68.30
39067;DHT22;24821;51.988;6.020;2023-06-05T14:01:31;26.30;68.30
39067;DHT22;24821;51.988;6.020;2023-06-05T14:03:56;26.00;68.40
39067;DHT22;24821;51.988;6.020;2023-06-05T14:06:22;25.90;66.30
39067;DHT22;24821;51.988;6.020;2023-06-05T14:08:48;25.80;67.40
39067;DHT22;24821;51.988;6.020;2023-06-05T14:11:13;25.90;67.30
39067;DHT22;24821;51.988;6.020;2023-06-05T14:13:39;26.00;67.30
39067;DHT22;24821;51.988;6.020;2023-06-05T14:16:05;26.00;68.90
39067;DHT22;24821;51.988;6.020;2023-06-05T14:18:32;26.00;67.90
39067;DHT22;24821;51.988;6.020;2023-06-05T14:20:57;26.10;68.40
39067;DHT22;24821;51.988;6.020;2023-06-05T14:23:23;26.10;67.20
39067;DHT22;24821;51.988;6.020;2023-06-05T14:25:50;26.20;67.80
39067;DHT22;24821;51.988;6.020;2023-06-05T14:28:16;26.20;65.80
39067;DHT22;24821;51.988;6.020;2023-06-05T14:30:41;26.20;66.20
39067;DHT22;24821;51.988;6.020;2023-06-05T14:33:07;26.20;66.50
39067;DHT22;24821;51.988;6.020;2023-06-05T14:35:32;26.20;65.30
39067;DHT22;24821;51.988;6.020;2023-06-05T14:37:58;26.20;66.30
39067;DHT22;24821;51.988;6.020;2023-06-05T14:40:24;26.30;67.70
39067;DHT22;24821;51.988;6.020;2023-06-05T14:42:50;26.30;68.60
39067;DHT22;24821;51.988;6.020;2023-06-05T14:45:16;26.30;67.00
39067;DHT22;24821;51.988;6.020;2023-06-05T14:47:42;26.30;66.80
39067;DHT22;24821;51.988;6.020;2023-06-05T14:50:09;26.30;66.50
39067;DHT22;24821;51.988;6.020;2023-06-05T14:52:35;26.30;67.00
39067;DHT22;24821;51.988;6.020;2023-06-05T14:55:01;26.30;66.00
39067;DHT22;24821;51.988;6.020;2023-06-05T14:57:27;26.20;65.40
39067;DHT22;24821;51.988;6.020;2023-06-05T14:59:53;26.20;66.10
39067;DHT22;24821;51.988;6.020;2023-06-05T15:02:19;26.20;66.80
39067;DHT22;24821;51.988;6.020;2023-06-05T15:04:48;26.30;66.30
39067;DHT22;24821;51.988;6.020;2023-06-05T15:07:18;26.30;66.50
39067;DHT22;24821;51.988;6.020;2023-06-05T15:09:46;26.30;65.90
39067;DHT22;24821;51.988;6.020;2023-06-05T15:12:11;26.20;66.20
39067;DHT22;24821;51.988;6.020;2023-06-05T15:14:37;26.20;65.70
39067;DHT22;24821;51.988;6.020;2023-06-05T15:17:02;26.20;67.50
39067;DHT22;24821;51.988;6.020;2023-06-05T15:19:28;26.30;66.60
39067;DHT22;24821;51.988;6.020;2023-06-05T15:21:53;26.30;66.90
39067;DHT22;24821;51.988;6.020;2023-06-05T15:24:19;26.30;66.40
39067;DHT22;24821;51.988;6.020;2023-06-05T15:26:45;26.30;66.90
39067;DHT22;24821;51.988;6.020;2023-06-05T15:29:10;26.30;65.70
39067;DHT22;24821;51.988;6.020;2023-06-05T15:31:36;26.20;65.10
39067;DHT22;24821;51.988;6.020;2023-06-05T15:34:01;26.20;66.50
39067;DHT22;24821;51.988;6.020;2023-06-05T15:36:27;26.20;65.90
39067;DHT22;24821;51.988;6.020;2023-06-05T15:38:53;26.20;66.30
39067;DHT22;24821;51.988;6.020;2023-06-05T15:41:18;26.10;66.00
39067;DHT22;24821;51.988;6.020;2023-06-05T15:43:44;26.10;66.60
39067;DHT22;24821;51.988;6.020;2023-06-05T15:46:10;26.10;67.10
39067;DHT22;24821;51.988;6.020;2023-06-05T15:48:36;26.10;66.60
39067;DHT22;24821;51.988;6.020;2023-06-05T15:51:01;26.10;66.80
39067;DHT22;24821;51.988;6.020;2023-06-05T15:53:27;25.90;67.00
39067;DHT22;24821;51.988;6.020;2023-06-05T15:55:52;25.80;66.90
39067;DHT22;24821;51.988;6.020;2023-06-05T15:58:18;25.80;66.90
39067;DHT22;24821;51.988;6.020;2023-06-05T16:00:43;25.80;67.00